To NAV CANADA Home Page Login to a new session Search on AWWS site Feedback and Comments Disclaimer Vers la page française équivalente Tips FAQ What's new on the site To the Forecasts and Observations / NOTAM section To "File a Flight Plan" website Publications and other links Update of the User's profile FIC Telephone Numbers My Weather Data Folder Route Weather Data Regional Weather Data Local Weather Data To the Forecasts and Observations / NOTAM section
Request Generated 09/29/2016 at 22:02:07 UTC . Weather information available at that time is displayed.

METAR/TAF

LOURDES-DE-BLANC-SABLON/QC    

METAR CYBX 292200Z 26004KT 15SM BKN040 07/05 A3034 RMK SC7 SLP279=
METAR CYBX 292100Z 33003KT 15SM BKN040 07/04 A3035 RMK SC6 SLP282=
METAR CYBX 292000Z 28003KT 15SM BKN040 08/04 A3036 RMK SC7 SLP286=

TAF CYBX 291943Z 2920/3008 24005KT P6SM SCT040 BKN200
FM300300 27005KT P6SM FEW040
RMK NXT FCST BY 300200Z=
Your time UTC time
Weather data provided by Environment Canada and NAV CANADA